KSBP/SBP METAR and TAF weather

Enter ICAO airport designator
Station Type Date Time Source
KSBP METAR 2022/07/03 14:00 UTC NOAA

KSBP 031400Z 00000KT 10SM OVC009 12/10 A2998 RMK AO2 T01220100 $


Station Type Date Time Source
KSBP Decoded METAR 2022/07/03 14:00 UTC NOAA

SAN LUIS OBISPO MC CHESNEY, CA, United States (KSBP) 35-14N 120-38W 59M
Jul 03, 2022 - 10:00 AM EDT / 2022.07.03 1400 UTC
Wind: Calm:0
Visibility: 10 mile(s):0
Sky conditions: overcast
Temperature: 54.0 F (12.2 C)
Dew Point: 50.0 F (10.0 C)
Relative Humidity: 86%
Pressure (altimeter): 29.98 in. Hg (1015 hPa)
ob: KSBP 031400Z 00000KT 10SM OVC009 12/10 A2998 RMK AO2 T01220100
cycle: 14

Station Type Date Time Source
KSBP TAF 2022/07/03 12:57 UTC NOAA

TAF KSBP 031153Z 0312/0412 31006KT P6SM OVC011
FM031700 31009KT P6SM SKC
FM032000 31018G25KT P6SM SKC
FM040300 31010KT P6SM OVC010

Example: see airport list